sensor_id;sensor_type;location;lat;lon;timestamp;P1;durP1;ratioP1;P2;durP2;ratioP2
40807;SDS011;26523;52.504;13.498;2023-07-24T00:01:52;7.05;;;3.15;;
40807;SDS011;26523;52.504;13.498;2023-07-24T00:04:17;7.88;;;3.08;;
40807;SDS011;26523;52.504;13.498;2023-07-24T00:06:43;6.05;;;2.80;;
40807;SDS011;26523;52.504;13.498;2023-07-24T00:09:09;8.25;;;2.83;;
40807;SDS011;26523;52.504;13.498;2023-07-24T00:11:34;5.90;;;2.90;;
40807;SDS011;26523;52.504;13.498;2023-07-24T00:14:00;9.20;;;3.70;;
40807;SDS011;26523;52.504;13.498;2023-07-24T00:16:25;7.03;;;2.78;;
40807;SDS011;26523;52.504;13.498;2023-07-24T00:18:51;6.15;;;2.63;;
40807;SDS011;26523;52.504;13.498;2023-07-24T00:21:17;6.88;;;2.92;;
40807;SDS011;26523;52.504;13.498;2023-07-24T00:23:42;6.15;;;2.42;;
40807;SDS011;26523;52.504;13.498;2023-07-24T00:26:08;6.20;;;2.97;;
40807;SDS011;26523;52.504;13.498;2023-07-24T00:28:33;6.80;;;2.53;;
40807;SDS011;26523;52.504;13.498;2023-07-24T00:30:59;4.53;;;2.67;;
40807;SDS011;26523;52.504;13.498;2023-07-24T00:33:25;7.82;;;2.72;;
40807;SDS011;26523;52.504;13.498;2023-07-24T00:35:50;4.80;;;2.30;;
40807;SDS011;26523;52.504;13.498;2023-07-24T00:38:19;8.02;;;3.17;;
40807;SDS011;26523;52.504;13.498;2023-07-24T00:40:45;5.70;;;2.92;;
40807;SDS011;26523;52.504;13.498;2023-07-24T00:43:11;5.00;;;2.60;;
40807;SDS011;26523;52.504;13.498;2023-07-24T00:45:36;5.60;;;2.63;;
40807;SDS011;26523;52.504;13.498;2023-07-24T00:48:02;5.75;;;2.53;;
40807;SDS011;26523;52.504;13.498;2023-07-24T00:50:28;5.45;;;2.55;;
40807;SDS011;26523;52.504;13.498;2023-07-24T00:52:55;5.15;;;2.65;;
40807;SDS011;26523;52.504;13.498;2023-07-24T00:55:21;6.70;;;2.88;;
40807;SDS011;26523;52.504;13.498;2023-07-24T00:57:47;5.68;;;2.58;;
40807;SDS011;26523;52.504;13.498;2023-07-24T01:00:12;5.80;;;3.33;;
40807;SDS011;26523;52.504;13.498;2023-07-24T01:02:38;4.70;;;2.67;;
40807;SDS011;26523;52.504;13.498;2023-07-24T01:05:04;6.20;;;2.40;;
40807;SDS011;26523;52.504;13.498;2023-07-24T01:07:31;5.65;;;2.88;;
40807;SDS011;26523;52.504;13.498;2023-07-24T01:09:56;4.45;;;2.38;;
40807;SDS011;26523;52.504;13.498;2023-07-24T01:12:22;5.40;;;2.90;;
40807;SDS011;26523;52.504;13.498;2023-07-24T01:14:58;5.32;;;2.55;;
40807;SDS011;26523;52.504;13.498;2023-07-24T01:17:33;5.85;;;2.75;;
40807;SDS011;26523;52.504;13.498;2023-07-24T01:20:04;7.13;;;3.03;;
40807;SDS011;26523;52.504;13.498;2023-07-24T01:22:38;4.70;;;2.50;;
40807;SDS011;26523;52.504;13.498;2023-07-24T01:25:25;5.53;;;2.88;;
40807;SDS011;26523;52.504;13.498;2023-07-24T01:27:56;9.10;;;3.28;;
40807;SDS011;26523;52.504;13.498;2023-07-24T01:30:22;7.22;;;2.97;;
40807;SDS011;26523;52.504;13.498;2023-07-24T01:32:48;6.10;;;2.90;;
40807;SDS011;26523;52.504;13.498;2023-07-24T01:35:14;6.15;;;2.42;;
40807;SDS011;26523;52.504;13.498;2023-07-24T01:37:39;5.45;;;2.60;;
40807;SDS011;26523;52.504;13.498;2023-07-24T01:40:07;4.47;;;2.45;;
40807;SDS011;26523;52.504;13.498;2023-07-24T01:42:35;4.93;;;2.55;;
40807;SDS011;26523;52.504;13.498;2023-07-24T01:45:02;4.63;;;2.38;;
40807;SDS011;26523;52.504;13.498;2023-07-24T01:47:29;6.75;;;2.70;;
40807;SDS011;26523;52.504;13.498;2023-07-24T01:49:55;5.22;;;2.72;;
40807;SDS011;26523;52.504;13.498;2023-07-24T01:52:21;6.22;;;2.63;;
40807;SDS011;26523;52.504;13.498;2023-07-24T01:54:46;5.43;;;3.05;;
40807;SDS011;26523;52.504;13.498;2023-07-24T01:57:12;7.45;;;3.08;;
40807;SDS011;26523;52.504;13.498;2023-07-24T01:59:38;5.18;;;2.50;;
40807;SDS011;26523;52.504;13.498;2023-07-24T02:02:03;7.70;;;2.90;;
40807;SDS011;26523;52.504;13.498;2023-07-24T02:04:29;4.95;;;2.78;;
40807;SDS011;26523;52.504;13.498;2023-07-24T02:06:55;4.88;;;2.30;;
40807;SDS011;26523;52.504;13.498;2023-07-24T02:09:20;6.32;;;3.00;;
40807;SDS011;26523;52.504;13.498;2023-07-24T02:11:46;6.15;;;2.90;;
40807;SDS011;26523;52.504;13.498;2023-07-24T02:14:12;5.00;;;2.53;;
40807;SDS011;26523;52.504;13.498;2023-07-24T02:16:39;5.13;;;2.83;;
40807;SDS011;26523;52.504;13.498;2023-07-24T02:19:05;5.45;;;2.92;;
40807;SDS011;26523;52.504;13.498;2023-07-24T02:21:31;11.98;;;2.55;;
40807;SDS011;26523;52.504;13.498;2023-07-24T02:23:56;7.05;;;2.88;;
40807;SDS011;26523;52.504;13.498;2023-07-24T02:26:22;6.00;;;2.90;;
40807;SDS011;26523;52.504;13.498;2023-07-24T02:28:48;5.82;;;2.70;;
40807;SDS011;26523;52.504;13.498;2023-07-24T02:31:13;5.30;;;2.70;;
40807;SDS011;26523;52.504;13.498;2023-07-24T02:33:39;6.50;;;2.40;;
40807;SDS011;26523;52.504;13.498;2023-07-24T02:36:05;7.80;;;2.90;;
40807;SDS011;26523;52.504;13.498;2023-07-24T02:38:30;5.07;;;2.40;;
40807;SDS011;26523;52.504;13.498;2023-07-24T02:40:56;6.38;;;3.05;;
40807;SDS011;26523;52.504;13.498;2023-07-24T02:43:22;5.60;;;2.63;;
40807;SDS011;26523;52.504;13.498;2023-07-24T02:45:48;6.57;;;2.25;;
40807;SDS011;26523;52.504;13.498;2023-07-24T02:48:14;5.93;;;2.63;;
40807;SDS011;26523;52.504;13.498;2023-07-24T02:50:39;5.32;;;2.42;;
40807;SDS011;26523;52.504;13.498;2023-07-24T02:53:05;5.32;;;2.67;;
40807;SDS011;26523;52.504;13.498;2023-07-24T02:55:31;4.95;;;2.30;;
40807;SDS011;26523;52.504;13.498;2023-07-24T02:57:56;6.00;;;2.30;;
40807;SDS011;26523;52.504;13.498;2023-07-24T03:00:22;4.60;;;2.55;;
40807;SDS011;26523;52.504;13.498;2023-07-24T03:02:48;5.65;;;2.25;;
40807;SDS011;26523;52.504;13.498;2023-07-24T03:05:13;5.90;;;2.55;;
40807;SDS011;26523;52.504;13.498;2023-07-24T03:07:39;4.30;;;2.05;;
40807;SDS011;26523;52.504;13.498;2023-07-24T03:10:05;3.72;;;2.20;;
40807;SDS011;26523;52.504;13.498;2023-07-24T03:12:31;5.57;;;2.38;;
40807;SDS011;26523;52.504;13.498;2023-07-24T03:14:56;4.90;;;2.20;;
40807;SDS011;26523;52.504;13.498;2023-07-24T03:17:22;6.35;;;2.00;;
40807;SDS011;26523;52.504;13.498;2023-07-24T03:19:48;4.53;;;2.70;;
40807;SDS011;26523;52.504;13.498;2023-07-24T03:22:14;4.55;;;2.47;;
40807;SDS011;26523;52.504;13.498;2023-07-24T03:24:40;6.57;;;2.22;;
40807;SDS011;26523;52.504;13.498;2023-07-24T03:27:05;4.57;;;2.15;;
40807;SDS011;26523;52.504;13.498;2023-07-24T03:29:31;5.68;;;2.03;;
40807;SDS011;26523;52.504;13.498;2023-07-24T03:31:57;5.28;;;2.67;;
40807;SDS011;26523;52.504;13.498;2023-07-24T03:34:22;6.88;;;2.80;;
40807;SDS011;26523;52.504;13.498;2023-07-24T03:36:48;4.28;;;2.35;;
40807;SDS011;26523;52.504;13.498;2023-07-24T03:39:13;5.45;;;2.00;;
40807;SDS011;26523;52.504;13.498;2023-07-24T03:41:40;4.50;;;2.08;;
40807;SDS011;26523;52.504;13.498;2023-07-24T03:44:07;7.35;;;2.65;;
40807;SDS011;26523;52.504;13.498;2023-07-24T03:46:32;3.92;;;2.17;;
40807;SDS011;26523;52.504;13.498;2023-07-24T03:48:58;4.90;;;2.00;;
40807;SDS011;26523;52.504;13.498;2023-07-24T03:51:24;7.40;;;2.30;;
40807;SDS011;26523;52.504;13.498;2023-07-24T03:53:50;3.97;;;2.15;;
40807;SDS011;26523;52.504;13.498;2023-07-24T03:56:15;3.67;;;2.10;;
40807;SDS011;26523;52.504;13.498;2023-07-24T03:58:41;4.88;;;2.55;;
40807;SDS011;26523;52.504;13.498;2023-07-24T04:01:07;5.75;;;1.90;;
40807;SDS011;26523;52.504;13.498;2023-07-24T04:03:33;3.25;;;1.88;;
40807;SDS011;26523;52.504;13.498;2023-07-24T04:05:59;6.68;;;2.25;;
40807;SDS011;26523;52.504;13.498;2023-07-24T04:08:25;6.25;;;2.47;;
40807;SDS011;26523;52.504;13.498;2023-07-24T04:10:51;3.83;;;1.83;;
40807;SDS011;26523;52.504;13.498;2023-07-24T04:13:17;4.43;;;2.22;;
40807;SDS011;26523;52.504;13.498;2023-07-24T04:15:42;4.50;;;2.10;;
40807;SDS011;26523;52.504;13.498;2023-07-24T04:18:09;5.38;;;1.67;;
40807;SDS011;26523;52.504;13.498;2023-07-24T04:20:35;4.05;;;2.15;;
40807;SDS011;26523;52.504;13.498;2023-07-24T04:23:00;3.67;;;1.98;;
40807;SDS011;26523;52.504;13.498;2023-07-24T04:25:26;4.55;;;2.10;;
40807;SDS011;26523;52.504;13.498;2023-07-24T04:27:52;8.85;;;2.83;;
40807;SDS011;26523;52.504;13.498;2023-07-24T04:30:17;5.63;;;2.08;;
40807;SDS011;26523;52.504;13.498;2023-07-24T04:32:43;3.40;;;1.80;;
40807;SDS011;26523;52.504;13.498;2023-07-24T04:35:08;7.03;;;2.47;;
40807;SDS011;26523;52.504;13.498;2023-07-24T04:37:34;3.78;;;1.60;;
40807;SDS011;26523;52.504;13.498;2023-07-24T04:40:00;3.58;;;1.67;;
40807;SDS011;26523;52.504;13.498;2023-07-24T04:42:26;5.00;;;2.13;;
40807;SDS011;26523;52.504;13.498;2023-07-24T04:44:51;3.47;;;1.70;;
40807;SDS011;26523;52.504;13.498;2023-07-24T04:47:17;3.08;;;1.80;;
40807;SDS011;26523;52.504;13.498;2023-07-24T04:49:42;4.05;;;1.73;;
40807;SDS011;26523;52.504;13.498;2023-07-24T04:52:08;4.25;;;1.70;;
40807;SDS011;26523;52.504;13.498;2023-07-24T04:54:34;3.17;;;1.40;;
40807;SDS011;26523;52.504;13.498;2023-07-24T04:56:59;5.10;;;2.08;;
40807;SDS011;26523;52.504;13.498;2023-07-24T04:59:25;5.18;;;1.95;;
40807;SDS011;26523;52.504;13.498;2023-07-24T05:01:51;2.55;;;1.50;;
40807;SDS011;26523;52.504;13.498;2023-07-24T05:04:16;4.07;;;2.17;;
40807;SDS011;26523;52.504;13.498;2023-07-24T05:06:42;5.20;;;2.55;;
40807;SDS011;26523;52.504;13.498;2023-07-24T05:09:08;3.17;;;1.77;;
40807;SDS011;26523;52.504;13.498;2023-07-24T05:11:33;3.90;;;1.45;;
40807;SDS011;26523;52.504;13.498;2023-07-24T05:13:59;4.30;;;1.45;;
40807;SDS011;26523;52.504;13.498;2023-07-24T05:16:25;5.10;;;1.55;;
40807;SDS011;26523;52.504;13.498;2023-07-24T05:18:50;3.47;;;1.50;;
40807;SDS011;26523;52.504;13.498;2023-07-24T05:21:16;4.00;;;1.67;;
40807;SDS011;26523;52.504;13.498;2023-07-24T05:23:41;3.55;;;1.40;;
40807;SDS011;26523;52.504;13.498;2023-07-24T05:26:07;6.97;;;2.20;;
40807;SDS011;26523;52.504;13.498;2023-07-24T05:28:33;4.18;;;2.13;;
40807;SDS011;26523;52.504;13.498;2023-07-24T05:31:02;6.15;;;1.73;;
40807;SDS011;26523;52.504;13.498;2023-07-24T05:33:29;4.00;;;1.33;;
40807;SDS011;26523;52.504;13.498;2023-07-24T05:36:02;7.47;;;2.03;;
40807;SDS011;26523;52.504;13.498;2023-07-24T05:38:29;4.57;;;1.60;;
40807;SDS011;26523;52.504;13.498;2023-07-24T05:40:58;3.88;;;1.30;;
40807;SDS011;26523;52.504;13.498;2023-07-24T05:43:25;3.70;;;1.42;;
40807;SDS011;26523;52.504;13.498;2023-07-24T05:45:51;3.03;;;1.40;;
40807;SDS011;26523;52.504;13.498;2023-07-24T05:48:18;4.47;;;1.33;;
40807;SDS011;26523;52.504;13.498;2023-07-24T05:50:43;3.83;;;1.30;;
40807;SDS011;26523;52.504;13.498;2023-07-24T05:53:09;4.65;;;1.45;;
40807;SDS011;26523;52.504;13.498;2023-07-24T05:55:35;5.43;;;1.30;;
40807;SDS011;26523;52.504;13.498;2023-07-24T05:58:01;3.47;;;1.30;;
40807;SDS011;26523;52.504;13.498;2023-07-24T06:00:26;3.35;;;1.35;;
40807;SDS011;26523;52.504;13.498;2023-07-24T06:02:53;3.40;;;1.60;;
40807;SDS011;26523;52.504;13.498;2023-07-24T06:05:18;7.18;;;1.52;;
40807;SDS011;26523;52.504;13.498;2023-07-24T06:07:45;2.38;;;1.38;;
40807;SDS011;26523;52.504;13.498;2023-07-24T06:10:13;2.67;;;1.40;;
40807;SDS011;26523;52.504;13.498;2023-07-24T06:12:39;5.22;;;1.42;;
40807;SDS011;26523;52.504;13.498;2023-07-24T06:15:06;5.05;;;1.52;;
40807;SDS011;26523;52.504;13.498;2023-07-24T06:17:32;3.42;;;1.40;;
40807;SDS011;26523;52.504;13.498;2023-07-24T06:19:57;2.15;;;1.20;;
40807;SDS011;26523;52.504;13.498;2023-07-24T06:22:23;3.78;;;1.20;;
40807;SDS011;26523;52.504;13.498;2023-07-24T06:24:49;4.57;;;1.40;;
40807;SDS011;26523;52.504;13.498;2023-07-24T06:27:15;1.88;;;1.10;;
40807;SDS011;26523;52.504;13.498;2023-07-24T06:29:41;7.07;;;1.63;;
40807;SDS011;26523;52.504;13.498;2023-07-24T06:32:07;4.60;;;1.20;;
40807;SDS011;26523;52.504;13.498;2023-07-24T06:34:33;2.13;;;1.30;;
40807;SDS011;26523;52.504;13.498;2023-07-24T06:36:59;2.42;;;1.30;;
40807;SDS011;26523;52.504;13.498;2023-07-24T06:39:25;3.58;;;1.38;;
40807;SDS011;26523;52.504;13.498;2023-07-24T06:41:53;3.13;;;1.60;;
40807;SDS011;26523;52.504;13.498;2023-07-24T06:44:19;5.40;;;1.65;;
40807;SDS011;26523;52.504;13.498;2023-07-24T06:46:45;5.13;;;1.95;;
40807;SDS011;26523;52.504;13.498;2023-07-24T06:49:10;11.38;;;1.63;;
40807;SDS011;26523;52.504;13.498;2023-07-24T06:51:36;3.40;;;1.65;;
40807;SDS011;26523;52.504;13.498;2023-07-24T06:54:03;3.95;;;1.63;;
40807;SDS011;26523;52.504;13.498;2023-07-24T06:56:30;5.05;;;1.98;;
40807;SDS011;26523;52.504;13.498;2023-07-24T06:58:56;3.88;;;1.67;;
40807;SDS011;26523;52.504;13.498;2023-07-24T07:01:21;1.63;;;1.30;;
40807;SDS011;26523;52.504;13.498;2023-07-24T07:03:47;3.03;;;1.67;;
40807;SDS011;26523;52.504;13.498;2023-07-24T07:06:15;3.08;;;1.45;;
40807;SDS011;26523;52.504;13.498;2023-07-24T07:08:41;2.22;;;1.50;;
40807;SDS011;26523;52.504;13.498;2023-07-24T07:11:06;4.13;;;1.38;;
40807;SDS011;26523;52.504;13.498;2023-07-24T07:13:32;2.30;;;1.38;;
40807;SDS011;26523;52.504;13.498;2023-07-24T07:15:58;3.17;;;1.60;;
40807;SDS011;26523;52.504;13.498;2023-07-24T07:18:23;8.25;;;1.83;;
40807;SDS011;26523;52.504;13.498;2023-07-24T07:20:50;2.05;;;1.27;;
40807;SDS011;26523;52.504;13.498;2023-07-24T07:23:16;3.83;;;1.58;;
40807;SDS011;26523;52.504;13.498;2023-07-24T07:25:42;3.22;;;1.67;;
40807;SDS011;26523;52.504;13.498;2023-07-24T07:28:10;3.22;;;1.77;;
40807;SDS011;26523;52.504;13.498;2023-07-24T07:30:41;4.33;;;1.87;;
40807;SDS011;26523;52.504;13.498;2023-07-24T07:33:07;3.97;;;1.65;;
40807;SDS011;26523;52.504;13.498;2023-07-24T07:35:33;4.53;;;1.58;;
40807;SDS011;26523;52.504;13.498;2023-07-24T07:38:00;4.90;;;1.80;;
40807;SDS011;26523;52.504;13.498;2023-07-24T07:40:26;6.30;;;1.85;;
40807;SDS011;26523;52.504;13.498;2023-07-24T07:42:53;2.47;;;1.70;;
40807;SDS011;26523;52.504;13.498;2023-07-24T07:45:19;4.13;;;2.20;;
40807;SDS011;26523;52.504;13.498;2023-07-24T07:47:45;4.05;;;2.08;;
40807;SDS011;26523;52.504;13.498;2023-07-24T07:50:10;3.33;;;1.80;;
40807;SDS011;26523;52.504;13.498;2023-07-24T07:52:36;2.58;;;1.60;;
40807;SDS011;26523;52.504;13.498;2023-07-24T07:55:02;6.88;;;1.70;;
40807;SDS011;26523;52.504;13.498;2023-07-24T07:57:28;2.30;;;1.67;;
40807;SDS011;26523;52.504;13.498;2023-07-24T07:59:54;4.68;;;2.20;;
40807;SDS011;26523;52.504;13.498;2023-07-24T08:02:19;3.78;;;1.70;;
40807;SDS011;26523;52.504;13.498;2023-07-24T08:04:45;3.15;;;1.90;;
40807;SDS011;26523;52.504;13.498;2023-07-24T08:07:10;2.53;;;1.67;;
40807;SDS011;26523;52.504;13.498;2023-07-24T08:09:36;2.50;;;1.70;;
40807;SDS011;26523;52.504;13.498;2023-07-24T08:12:03;3.55;;;1.58;;
40807;SDS011;26523;52.504;13.498;2023-07-24T08:14:29;2.67;;;1.60;;
40807;SDS011;26523;52.504;13.498;2023-07-24T08:16:55;5.95;;;2.15;;
40807;SDS011;26523;52.504;13.498;2023-07-24T08:19:21;6.32;;;3.67;;
40807;SDS011;26523;52.504;13.498;2023-07-24T08:21:47;4.82;;;2.35;;
40807;SDS011;26523;52.504;13.498;2023-07-24T08:24:12;3.90;;;2.00;;
40807;SDS011;26523;52.504;13.498;2023-07-24T08:26:38;4.35;;;1.80;;
40807;SDS011;26523;52.504;13.498;2023-07-24T08:29:04;4.20;;;1.70;;
40807;SDS011;26523;52.504;13.498;2023-07-24T08:31:30;4.28;;;1.60;;
40807;SDS011;26523;52.504;13.498;2023-07-24T08:33:56;4.03;;;1.70;;
40807;SDS011;26523;52.504;13.498;2023-07-24T08:36:21;3.45;;;1.50;;
40807;SDS011;26523;52.504;13.498;2023-07-24T08:38:47;3.22;;;1.98;;
40807;SDS011;26523;52.504;13.498;2023-07-24T08:41:13;2.88;;;1.45;;
40807;SDS011;26523;52.504;13.498;2023-07-24T08:43:40;3.08;;;1.77;;
40807;SDS011;26523;52.504;13.498;2023-07-24T08:46:07;3.53;;;1.60;;
40807;SDS011;26523;52.504;13.498;2023-07-24T08:48:34;3.08;;;1.58;;
40807;SDS011;26523;52.504;13.498;2023-07-24T08:51:05;5.07;;;1.70;;
40807;SDS011;26523;52.504;13.498;2023-07-24T08:53:41;3.83;;;1.73;;
40807;SDS011;26523;52.504;13.498;2023-07-24T08:56:08;4.68;;;1.73;;
40807;SDS011;26523;52.504;13.498;2023-07-24T08:58:35;4.70;;;1.75;;
40807;SDS011;26523;52.504;13.498;2023-07-24T09:01:02;3.70;;;1.48;;
40807;SDS011;26523;52.504;13.498;2023-07-24T09:03:28;4.00;;;1.88;;
40807;SDS011;26523;52.504;13.498;2023-07-24T09:05:56;4.70;;;1.70;;
40807;SDS011;26523;52.504;13.498;2023-07-24T09:08:28;2.50;;;1.50;;
40807;SDS011;26523;52.504;13.498;2023-07-24T09:10:58;8.70;;;1.65;;
40807;SDS011;26523;52.504;13.498;2023-07-24T09:13:25;4.45;;;2.13;;
40807;SDS011;26523;52.504;13.498;2023-07-24T09:15:51;6.38;;;1.80;;
40807;SDS011;26523;52.504;13.498;2023-07-24T09:18:16;9.65;;;5.03;;
40807;SDS011;26523;52.504;13.498;2023-07-24T09:20:44;3.92;;;2.50;;
40807;SDS011;26523;52.504;13.498;2023-07-24T09:23:11;6.05;;;2.85;;
40807;SDS011;26523;52.504;13.498;2023-07-24T09:25:40;3.50;;;1.65;;
40807;SDS011;26523;52.504;13.498;2023-07-24T09:28:14;3.85;;;1.75;;
40807;SDS011;26523;52.504;13.498;2023-07-24T09:30:41;4.28;;;1.60;;
40807;SDS011;26523;52.504;13.498;2023-07-24T09:33:15;3.75;;;1.60;;
40807;SDS011;26523;52.504;13.498;2023-07-24T09:35:42;3.47;;;1.42;;
40807;SDS011;26523;52.504;13.498;2023-07-24T09:38:08;3.25;;;1.55;;
40807;SDS011;26523;52.504;13.498;2023-07-24T09:40:41;2.70;;;1.60;;
40807;SDS011;26523;52.504;13.498;2023-07-24T09:43:16;4.82;;;1.70;;
40807;SDS011;26523;52.504;13.498;2023-07-24T09:45:43;6.00;;;2.05;;
40807;SDS011;26523;52.504;13.498;2023-07-24T09:48:10;5.05;;;2.15;;
40807;SDS011;26523;52.504;13.498;2023-07-24T09:50:39;7.50;;;2.05;;
40807;SDS011;26523;52.504;13.498;2023-07-24T09:56:08;11.40;;;5.95;;
40807;SDS011;26523;52.504;13.498;2023-07-24T09:58:35;5.25;;;2.10;;
40807;SDS011;26523;52.504;13.498;2023-07-24T10:01:03;5.43;;;1.70;;
40807;SDS011;26523;52.504;13.498;2023-07-24T10:03:33;5.32;;;1.85;;
40807;SDS011;26523;52.504;13.498;2023-07-24T10:06:01;4.55;;;1.73;;
40807;SDS011;26523;52.504;13.498;2023-07-24T10:08:27;7.28;;;4.25;;
40807;SDS011;26523;52.504;13.498;2023-07-24T10:10:53;7.57;;;3.30;;
40807;SDS011;26523;52.504;13.498;2023-07-24T10:13:19;4.00;;;2.67;;
40807;SDS011;26523;52.504;13.498;2023-07-24T10:15:47;4.40;;;2.40;;
40807;SDS011;26523;52.504;13.498;2023-07-24T10:18:15;6.55;;;2.10;;
40807;SDS011;26523;52.504;13.498;2023-07-24T10:20:42;8.63;;;2.20;;
40807;SDS011;26523;52.504;13.498;2023-07-24T10:23:09;4.10;;;2.05;;
40807;SDS011;26523;52.504;13.498;2023-07-24T10:25:37;8.63;;;2.28;;
40807;SDS011;26523;52.504;13.498;2023-07-24T10:28:06;5.32;;;2.20;;
40807;SDS011;26523;52.504;13.498;2023-07-24T10:30:36;7.80;;;3.67;;
40807;SDS011;26523;52.504;13.498;2023-07-24T10:33:09;9.57;;;3.80;;
40807;SDS011;26523;52.504;13.498;2023-07-24T10:35:38;7.03;;;3.90;;
40807;SDS011;26523;52.504;13.498;2023-07-24T10:38:07;4.53;;;2.38;;
40807;SDS011;26523;52.504;13.498;2023-07-24T10:40:33;4.70;;;2.63;;
40807;SDS011;26523;52.504;13.498;2023-07-24T10:43:09;5.10;;;2.78;;
40807;SDS011;26523;52.504;13.498;2023-07-24T10:45:45;5.75;;;2.28;;
40807;SDS011;26523;52.504;13.498;2023-07-24T10:48:16;6.00;;;2.67;;
40807;SDS011;26523;52.504;13.498;2023-07-24T10:50:43;3.63;;;2.35;;
40807;SDS011;26523;52.504;13.498;2023-07-24T10:53:17;6.90;;;3.15;;
40807;SDS011;26523;52.504;13.498;2023-07-24T10:55:44;5.75;;;2.90;;
40807;SDS011;26523;52.504;13.498;2023-07-24T10:58:15;7.82;;;2.83;;
40807;SDS011;26523;52.504;13.498;2023-07-24T11:00:41;10.63;;;3.03;;
40807;SDS011;26523;52.504;13.498;2023-07-24T11:03:09;11.50;;;4.65;;
40807;SDS011;26523;52.504;13.498;2023-07-24T11:05:38;7.53;;;3.80;;
40807;SDS011;26523;52.504;13.498;2023-07-24T11:08:24;7.53;;;3.50;;
40807;SDS011;26523;52.504;13.498;2023-07-24T11:10:53;5.10;;;3.05;;
40807;SDS011;26523;52.504;13.498;2023-07-24T11:13:21;8.02;;;3.85;;
40807;SDS011;26523;52.504;13.498;2023-07-24T11:15:49;5.03;;;3.20;;
40807;SDS011;26523;52.504;13.498;2023-07-24T11:18:15;10.10;;;3.83;;
40807;SDS011;26523;52.504;13.498;2023-07-24T11:20:45;6.93;;;3.15;;
40807;SDS011;26523;52.504;13.498;2023-07-24T11:23:13;8.27;;;3.70;;
40807;SDS011;26523;52.504;13.498;2023-07-24T11:25:39;5.65;;;3.05;;
40807;SDS011;26523;52.504;13.498;2023-07-24T11:28:09;6.10;;;3.50;;
40807;SDS011;26523;52.504;13.498;2023-07-24T11:30:36;7.63;;;3.45;;
40807;SDS011;26523;52.504;13.498;2023-07-24T11:33:03;10.90;;;3.30;;
40807;SDS011;26523;52.504;13.498;2023-07-24T11:35:31;7.57;;;3.00;;
40807;SDS011;26523;52.504;13.498;2023-07-24T11:37:57;5.57;;;3.28;;
40807;SDS011;26523;52.504;13.498;2023-07-24T11:40:30;8.23;;;2.92;;
40807;SDS011;26523;52.504;13.498;2023-07-24T11:42:57;7.28;;;3.50;;
40807;SDS011;26523;52.504;13.498;2023-07-24T11:45:22;6.85;;;3.17;;
40807;SDS011;26523;52.504;13.498;2023-07-24T11:47:48;11.23;;;4.13;;
40807;SDS011;26523;52.504;13.498;2023-07-24T11:50:15;11.10;;;4.10;;
40807;SDS011;26523;52.504;13.498;2023-07-24T11:52:43;6.32;;;3.28;;
40807;SDS011;26523;52.504;13.498;2023-07-24T11:55:14;6.38;;;3.28;;
40807;SDS011;26523;52.504;13.498;2023-07-24T11:57:41;8.82;;;3.78;;
40807;SDS011;26523;52.504;13.498;2023-07-24T12:00:28;6.88;;;3.63;;
40807;SDS011;26523;52.504;13.498;2023-07-24T12:02:53;9.80;;;4.00;;
40807;SDS011;26523;52.504;13.498;2023-07-24T12:05:25;7.38;;;3.33;;
40807;SDS011;26523;52.504;13.498;2023-07-24T12:07:53;8.02;;;3.78;;
40807;SDS011;26523;52.504;13.498;2023-07-24T12:10:26;10.38;;;3.90;;
40807;SDS011;26523;52.504;13.498;2023-07-24T12:15:19;8.93;;;3.95;;
40807;SDS011;26523;52.504;13.498;2023-07-24T12:17:45;9.10;;;3.55;;
40807;SDS011;26523;52.504;13.498;2023-07-24T12:20:10;5.70;;;3.28;;
40807;SDS011;26523;52.504;13.498;2023-07-24T12:22:37;7.35;;;3.63;;
40807;SDS011;26523;52.504;13.498;2023-07-24T12:25:04;10.60;;;3.90;;
40807;SDS011;26523;52.504;13.498;2023-07-24T12:27:31;11.95;;;4.43;;
40807;SDS011;26523;52.504;13.498;2023-07-24T12:29:57;10.40;;;3.83;;
40807;SDS011;26523;52.504;13.498;2023-07-24T12:32:23;13.07;;;4.68;;
40807;SDS011;26523;52.504;13.498;2023-07-24T12:34:52;11.60;;;3.70;;
40807;SDS011;26523;52.504;13.498;2023-07-24T12:37:19;10.80;;;3.95;;
40807;SDS011;26523;52.504;13.498;2023-07-24T12:39:45;9.38;;;3.88;;
40807;SDS011;26523;52.504;13.498;2023-07-24T12:42:12;7.78;;;3.35;;
40807;SDS011;26523;52.504;13.498;2023-07-24T12:44:38;13.68;;;3.63;;
40807;SDS011;26523;52.504;13.498;2023-07-24T12:47:04;10.52;;;3.72;;
40807;SDS011;26523;52.504;13.498;2023-07-24T12:49:30;8.40;;;3.28;;
40807;SDS011;26523;52.504;13.498;2023-07-24T12:51:56;12.35;;;3.50;;
40807;SDS011;26523;52.504;13.498;2023-07-24T12:54:22;6.22;;;3.53;;
40807;SDS011;26523;52.504;13.498;2023-07-24T12:56:48;6.80;;;3.22;;
40807;SDS011;26523;52.504;13.498;2023-07-24T12:59:14;9.60;;;3.13;;
40807;SDS011;26523;52.504;13.498;2023-07-24T13:01:40;6.00;;;3.08;;
40807;SDS011;26523;52.504;13.498;2023-07-24T13:04:06;8.20;;;2.95;;
40807;SDS011;26523;52.504;13.498;2023-07-24T13:06:32;5.50;;;2.75;;
40807;SDS011;26523;52.504;13.498;2023-07-24T13:08:58;5.75;;;3.28;;
40807;SDS011;26523;52.504;13.498;2023-07-24T13:11:24;6.32;;;2.28;;
40807;SDS011;26523;52.504;13.498;2023-07-24T13:13:49;6.90;;;3.15;;
40807;SDS011;26523;52.504;13.498;2023-07-24T13:16:18;7.47;;;2.90;;
40807;SDS011;26523;52.504;13.498;2023-07-24T13:18:44;6.75;;;2.50;;
40807;SDS011;26523;52.504;13.498;2023-07-24T13:21:09;5.97;;;2.90;;
40807;SDS011;26523;52.504;13.498;2023-07-24T13:23:35;6.38;;;2.85;;
40807;SDS011;26523;52.504;13.498;2023-07-24T13:26:01;6.53;;;3.22;;
40807;SDS011;26523;52.504;13.498;2023-07-24T13:28:26;8.05;;;3.22;;
40807;SDS011;26523;52.504;13.498;2023-07-24T13:30:52;6.70;;;3.13;;
40807;SDS011;26523;52.504;13.498;2023-07-24T13:33:18;8.18;;;3.40;;
40807;SDS011;26523;52.504;13.498;2023-07-24T13:35:44;7.63;;;2.95;;
40807;SDS011;26523;52.504;13.498;2023-07-24T13:38:09;5.78;;;2.55;;
40807;SDS011;26523;52.504;13.498;2023-07-24T13:40:36;8.15;;;3.22;;
40807;SDS011;26523;52.504;13.498;2023-07-24T13:43:02;9.68;;;3.47;;
40807;SDS011;26523;52.504;13.498;2023-07-24T13:45:28;6.70;;;3.00;;
40807;SDS011;26523;52.504;13.498;2023-07-24T13:47:54;6.45;;;2.92;;
40807;SDS011;26523;52.504;13.498;2023-07-24T13:50:21;21.55;;;4.05;;
40807;SDS011;26523;52.504;13.498;2023-07-24T13:52:47;7.70;;;3.90;;
40807;SDS011;26523;52.504;13.498;2023-07-24T13:55:12;8.60;;;3.00;;
40807;SDS011;26523;52.504;13.498;2023-07-24T13:57:39;9.98;;;3.08;;
40807;SDS011;26523;52.504;13.498;2023-07-24T14:00:05;7.53;;;3.03;;
40807;SDS011;26523;52.504;13.498;2023-07-24T14:02:31;8.27;;;2.75;;
40807;SDS011;26523;52.504;13.498;2023-07-24T14:04:56;6.35;;;3.25;;
40807;SDS011;26523;52.504;13.498;2023-07-24T14:07:22;7.10;;;2.90;;
40807;SDS011;26523;52.504;13.498;2023-07-24T14:09:48;6.60;;;3.38;;
40807;SDS011;26523;52.504;13.498;2023-07-24T14:12:13;9.13;;;3.80;;
40807;SDS011;26523;52.504;13.498;2023-07-24T14:14:39;6.35;;;3.65;;
40807;SDS011;26523;52.504;13.498;2023-07-24T14:17:04;8.35;;;3.45;;
40807;SDS011;26523;52.504;13.498;2023-07-24T14:19:30;6.10;;;3.67;;
40807;SDS011;26523;52.504;13.498;2023-07-24T14:21:56;13.57;;;4.63;;
40807;SDS011;26523;52.504;13.498;2023-07-24T14:24:22;8.95;;;3.50;;
40807;SDS011;26523;52.504;13.498;2023-07-24T14:26:47;7.65;;;3.17;;
40807;SDS011;26523;52.504;13.498;2023-07-24T14:29:13;9.35;;;3.45;;
40807;SDS011;26523;52.504;13.498;2023-07-24T14:31:42;12.27;;;3.55;;
40807;SDS011;26523;52.504;13.498;2023-07-24T14:34:08;11.05;;;4.18;;
40807;SDS011;26523;52.504;13.498;2023-07-24T14:36:36;9.45;;;3.63;;